sensor_id;sensor_type;location;lat;lon;timestamp;P1;P2;P0
74434;PMS7003;62867;52.038;29.256;2023-09-07T00:01:06;0;0;0
74434;PMS7003;62867;52.038;29.256;2023-09-07T00:05:50;0.4;0.4;0.4
74434;PMS7003;62867;52.038;29.256;2023-09-07T00:10:38;0.4;0.2;0.2
74434;PMS7003;62867;52.038;29.256;2023-09-07T00:15:38;0.4;0.4;0.2
74434;PMS7003;62867;52.038;29.256;2023-09-07T00:21:22;0.4;0.4;0.4
74434;PMS7003;62867;52.038;29.256;2023-09-07T00:25:38;0.6;0.4;0.2
74434;PMS7003;62867;52.038;29.256;2023-09-07T00:30:38;0.2;0.2;0.2
74434;PMS7003;62867;52.038;29.256;2023-09-07T00:36:08;0;0;0
74434;PMS7003;62867;52.038;29.256;2023-09-07T00:40:58;1.2;0.8;0.8
74434;PMS7003;62867;52.038;29.256;2023-09-07T00:45:56;0;0;0
74434;PMS7003;62867;52.038;29.256;2023-09-07T00:51:06;0.4;0.4;0.4
74434;PMS7003;62867;52.038;29.256;2023-09-07T00:55:38;1;0.4;0.4
74434;PMS7003;62867;52.038;29.256;2023-09-07T01:01:08;0.4;0.4;0.4
74434;PMS7003;62867;52.038;29.256;2023-09-07T01:05:47;1.4;1;0.8
74434;PMS7003;62867;52.038;29.256;2023-09-07T01:11:22;0.4;0.4;0.4
74434;PMS7003;62867;52.038;29.256;2023-09-07T01:15:46;0.8;0.8;0.6
74434;PMS7003;62867;52.038;29.256;2023-09-07T01:20:58;0.6;0.6;0.6
74434;PMS7003;62867;52.038;29.256;2023-09-07T01:26:00;0.4;0.4;0.4
74434;PMS7003;62867;52.038;29.256;2023-09-07T01:30:58;1;1;0.8
74434;PMS7003;62867;52.038;29.256;2023-09-07T01:36:22;0.8;0.5;0
74434;PMS7003;62867;52.038;29.256;2023-09-07T01:41:06;1;0.6;0.6
74434;PMS7003;62867;52.038;29.256;2023-09-07T01:45:38;1.2;0.8;0.8
74434;PMS7003;62867;52.038;29.256;2023-09-07T01:50:58;1.8;1.6;1.2
74434;PMS7003;62867;52.038;29.256;2023-09-07T01:55:44;2.2;2.2;2
74434;PMS7003;62867;52.038;29.256;2023-09-07T02:01:23;1.2;1.2;1
74434;PMS7003;62867;52.038;29.256;2023-09-07T02:05:52;2.6;2.4;2
74434;PMS7003;62867;52.038;29.256;2023-09-07T02:10:40;2.4;2;1.8
74434;PMS7003;62867;52.038;29.256;2023-09-07T02:15:48;1.4;1.4;1.2
74434;PMS7003;62867;52.038;29.256;2023-09-07T02:20:38;1;1;1
74434;PMS7003;62867;52.038;29.256;2023-09-07T02:26:22;0.6;0.6;0.6
74434;PMS7003;62867;52.038;29.256;2023-09-07T02:31:02;1.4;1.4;1.2
74434;PMS7003;62867;52.038;29.256;2023-09-07T02:36:12;1;1;1
74434;PMS7003;62867;52.038;29.256;2023-09-07T02:40:52;1.8;1.8;1.8
74434;PMS7003;62867;52.038;29.256;2023-09-07T02:45:50;1;1;0.6
74434;PMS7003;62867;52.038;29.256;2023-09-07T02:51:22;1.4;1.4;0.8
74434;PMS7003;62867;52.038;29.256;2023-09-07T02:55:52;0.8;0.8;0.4
74434;PMS7003;62867;52.038;29.256;2023-09-07T03:00:58;1.6;1.6;1.2
74434;PMS7003;62867;52.038;29.256;2023-09-07T03:06:08;1;1;0.4
74434;PMS7003;62867;52.038;29.256;2023-09-07T03:11:02;1.8;1.4;1.2
74434;PMS7003;62867;52.038;29.256;2023-09-07T03:16:22;1;1;0.8
74434;PMS7003;62867;52.038;29.256;2023-09-07T03:21:06;1.4;1.4;1.2
74434;PMS7003;62867;52.038;29.256;2023-09-07T03:25:56;2.4;2.4;2.4
74434;PMS7003;62867;52.038;29.256;2023-09-07T03:30:53;1.4;1.4;1
74434;PMS7003;62867;52.038;29.256;2023-09-07T03:35:50;1.2;1.2;1.2
74434;PMS7003;62867;52.038;29.256;2023-09-07T03:41:20;1.5;1.5;1.3
74434;PMS7003;62867;52.038;29.256;2023-09-07T03:45:56;2;2;1.6
74434;PMS7003;62867;52.038;29.256;2023-09-07T03:51:10;1.2;1.2;0.6
74434;PMS7003;62867;52.038;29.256;2023-09-07T03:56:08;1;0.6;0.4
74434;PMS7003;62867;52.038;29.256;2023-09-07T04:00:58;1;1;1
74434;PMS7003;62867;52.038;29.256;2023-09-07T04:06:00;1.6;1.2;1
74434;PMS7003;62867;52.038;29.256;2023-09-07T04:11:06;2.2;2;2
74434;PMS7003;62867;52.038;29.256;2023-09-07T04:15:41;1.8;1.8;1.4
74434;PMS7003;62867;52.038;29.256;2023-09-07T04:21:14;1;1;0.8
74434;PMS7003;62867;52.038;29.256;2023-09-07T04:25:50;1.8;1.8;1.8
74434;PMS7003;62867;52.038;29.256;2023-09-07T04:31:20;0.8;0.8;0.4
74434;PMS7003;62867;52.038;29.256;2023-09-07T04:35:38;0.6;0.2;0.2
74434;PMS7003;62867;52.038;29.256;2023-09-07T04:40:52;0.8;0.8;0.5
74434;PMS7003;62867;52.038;29.256;2023-09-07T04:46:06;1;1;0.8
74434;PMS7003;62867;52.038;29.256;2023-09-07T04:50:58;0.2;0.2;0
74434;PMS7003;62867;52.038;29.256;2023-09-07T04:56:20;0.4;0.4;0.4
74434;PMS7003;62867;52.038;29.256;2023-09-07T05:01:05;0.6;0.6;0.6
74434;PMS7003;62867;52.038;29.256;2023-09-07T05:06:06;0.8;0.6;0.6
74434;PMS7003;62867;52.038;29.256;2023-09-07T05:11:12;0.2;0;0
74434;PMS7003;62867;52.038;29.256;2023-09-07T05:16:06;0.4;0.4;0.2
74434;PMS7003;62867;52.038;29.256;2023-09-07T05:20:47;0;0;0
74434;PMS7003;62867;52.038;29.256;2023-09-07T05:26:21;0;0;0
74434;PMS7003;62867;52.038;29.256;2023-09-07T05:31:20;0.2;0;0
74434;PMS7003;62867;52.038;29.256;2023-09-07T05:36:12;0.4;0.4;0.4
74434;PMS7003;62867;52.038;29.256;2023-09-07T05:41:20;0;0;0
74434;PMS7003;62867;52.038;29.256;2023-09-07T05:45:39;0.4;0;0
74434;PMS7003;62867;52.038;29.256;2023-09-07T05:51:20;0.2;0;0
74434;PMS7003;62867;52.038;29.256;2023-09-07T05:55:50;0.2;0.2;0
74434;PMS7003;62867;52.038;29.256;2023-09-07T06:00:36;0;0;0
74434;PMS7003;62867;52.038;29.256;2023-09-07T06:06:20;0.2;0.2;0.2
74434;PMS7003;62867;52.038;29.256;2023-09-07T06:11:04;0;0;0
74434;PMS7003;62867;52.038;29.256;2023-09-07T06:16:20;0.2;0.2;0
74434;PMS7003;62867;52.038;29.256;2023-09-07T06:21:06;0.6;0.6;0.6
74434;PMS7003;62867;52.038;29.256;2023-09-07T06:25:54;0.2;0.2;0
74434;PMS7003;62867;52.038;29.256;2023-09-07T06:31:20;0.2;0.2;0
74434;PMS7003;62867;52.038;29.256;2023-09-07T06:35:39;0.2;0.2;0.2
74434;PMS7003;62867;52.038;29.256;2023-09-07T06:41:20;0;0;0
74434;PMS7003;62867;52.038;29.256;2023-09-07T06:45:44;0;0;0
74434;PMS7003;62867;52.038;29.256;2023-09-07T06:50:38;0;0;0
74434;PMS7003;62867;52.038;29.256;2023-09-07T06:56:19;0;0;0
74434;PMS7003;62867;52.038;29.256;2023-09-07T07:00:40;0;0;0
74434;PMS7003;62867;52.038;29.256;2023-09-07T07:06:18;0;0;0
74434;PMS7003;62867;52.038;29.256;2023-09-07T07:10:56;0;0;0
74434;PMS7003;62867;52.038;29.256;2023-09-07T07:16:12;0;0;0
74434;PMS7003;62867;52.038;29.256;2023-09-07T07:21:20;0;0;0
74434;PMS7003;62867;52.038;29.256;2023-09-07T07:25:44;0;0;0
74434;PMS7003;62867;52.038;29.256;2023-09-07T07:31:20;0;0;0
74434;PMS7003;62867;52.038;29.256;2023-09-07T07:35:54;0;0;0
74434;PMS7003;62867;52.038;29.256;2023-09-07T07:40:38;0;0;0
74434;PMS7003;62867;52.038;29.256;2023-09-07T07:46:20;0;0;0
74434;PMS7003;62867;52.038;29.256;2023-09-07T07:51:05;0;0;0
74434;PMS7003;62867;52.038;29.256;2023-09-07T07:56:20;0;0;0
74434;PMS7003;62867;52.038;29.256;2023-09-07T08:00:58;0;0;0
74434;PMS7003;62867;52.038;29.256;2023-09-07T08:06:13;0;0;0
74434;PMS7003;62867;52.038;29.256;2023-09-07T08:11:20;0;0;0
74434;PMS7003;62867;52.038;29.256;2023-09-07T08:15:54;0;0;0
74434;PMS7003;62867;52.038;29.256;2023-09-07T08:21:20;0;0;0
74434;PMS7003;62867;52.038;29.256;2023-09-07T08:26:06;0;0;0
74434;PMS7003;62867;52.038;29.256;2023-09-07T08:30:58;0;0;0
74434;PMS7003;62867;52.038;29.256;2023-09-07T08:36:21;0.2;0.2;0
74434;PMS7003;62867;52.038;29.256;2023-09-07T08:41:21;0;0;0
74434;PMS7003;62867;52.038;29.256;2023-09-07T08:46:09;0.5;0.5;0
74434;PMS7003;62867;52.038;29.256;2023-09-07T08:50:58;1.4;1;0
74434;PMS7003;62867;52.038;29.256;2023-09-07T08:56:13;1.2;1;0
74434;PMS7003;62867;52.038;29.256;2023-09-07T09:01:21;1.4;1.4;0
74434;PMS7003;62867;52.038;29.256;2023-09-07T09:05:39;1.4;1.4;0
74434;PMS7003;62867;52.038;29.256;2023-09-07T09:10:37;1;1;0
74434;PMS7003;62867;52.038;29.256;2023-09-07T09:15:43;1.2;1.2;0
74434;PMS7003;62867;52.038;29.256;2023-09-07T09:20:55;1.4;1.4;0
74434;PMS7003;62867;52.038;29.256;2023-09-07T09:26:17;0.4;0.4;0
74434;PMS7003;62867;52.038;29.256;2023-09-07T09:31:01;1;0.8;0
74434;PMS7003;62867;52.038;29.256;2023-09-07T09:36:17;0;0;0
74434;PMS7003;62867;52.038;29.256;2023-09-07T09:40:55;0.2;0;0
74434;PMS7003;62867;52.038;29.256;2023-09-07T09:46:09;0.3;0;0
74434;PMS7003;62867;52.038;29.256;2023-09-07T09:51:17;0;0;0
74434;PMS7003;62867;52.038;29.256;2023-09-07T09:56:01;0;0;0
74434;PMS7003;62867;52.038;29.256;2023-09-07T10:01:15;0;0;0
74434;PMS7003;62867;52.038;29.256;2023-09-07T10:05:47;0;0;0
74434;PMS7003;62867;52.038;29.256;2023-09-07T10:10:52;0;0;0
74434;PMS7003;62867;52.038;29.256;2023-09-07T10:16:19;0;0;0
74434;PMS7003;62867;52.038;29.256;2023-09-07T10:20:47;0;0;0
74434;PMS7003;62867;52.038;29.256;2023-09-07T10:26:05;0;0;0
74434;PMS7003;62867;52.038;29.256;2023-09-07T10:31:13;0;0;0
74434;PMS7003;62867;52.038;29.256;2023-09-07T10:36:09;0.2;0;0
74434;PMS7003;62867;52.038;29.256;2023-09-07T10:41:18;0;0;0
74434;PMS7003;62867;52.038;29.256;2023-09-07T10:45:45;0;0;0
74434;PMS7003;62867;52.038;29.256;2023-09-07T10:51:17;0.2;0;0
74434;PMS7003;62867;52.038;29.256;2023-09-07T10:55:49;0.4;0;0
74434;PMS7003;62867;52.038;29.256;2023-09-07T11:00:43;0.2;0;0
74434;PMS7003;62867;52.038;29.256;2023-09-07T11:06:19;0.4;0;0
74434;PMS7003;62867;52.038;29.256;2023-09-07T11:11:03;0;0;0
74434;PMS7003;62867;52.038;29.256;2023-09-07T11:16:19;0;0;0
74434;PMS7003;62867;52.038;29.256;2023-09-07T11:20:43;0;0;0
74434;PMS7003;62867;52.038;29.256;2023-09-07T11:26:11;0;0;0
74434;PMS7003;62867;52.038;29.256;2023-09-07T11:31:18;0;0;0
74434;PMS7003;62867;52.038;29.256;2023-09-07T11:35:43;0;0;0
74434;PMS7003;62867;52.038;29.256;2023-09-07T11:41:19;0.2;0;0
74434;PMS7003;62867;52.038;29.256;2023-09-07T11:45:43;0;0;0
74434;PMS7003;62867;52.038;29.256;2023-09-07T11:50:37;0;0;0
74434;PMS7003;62867;52.038;29.256;2023-09-07T11:56:19;0;0;0
74434;PMS7003;62867;52.038;29.256;2023-09-07T12:01:03;0;0;0
74434;PMS7003;62867;52.038;29.256;2023-09-07T12:06:05;0;0;0
74434;PMS7003;62867;52.038;29.256;2023-09-07T12:10:43;0;0;0
74434;PMS7003;62867;52.038;29.256;2023-09-07T12:15:57;0;0;0
74434;PMS7003;62867;52.038;29.256;2023-09-07T12:21:19;0;0;0
74434;PMS7003;62867;52.038;29.256;2023-09-07T12:26:03;0;0;0
74434;PMS7003;62867;52.038;29.256;2023-09-07T12:31:19;0;0;0
74434;PMS7003;62867;52.038;29.256;2023-09-07T12:35:49;0.4;0;0
74434;PMS7003;62867;52.038;29.256;2023-09-07T12:40:37;0;0;0
74434;PMS7003;62867;52.038;29.256;2023-09-07T12:46:17;0.5;0;0
74434;PMS7003;62867;52.038;29.256;2023-09-07T12:51:01;0.4;0;0
74434;PMS7003;62867;52.038;29.256;2023-09-07T12:56:19;0;0;0
74434;PMS7003;62867;52.038;29.256;2023-09-07T13:00:57;0.2;0;0
74434;PMS7003;62867;52.038;29.256;2023-09-07T13:06:11;0;0;0
74434;PMS7003;62867;52.038;29.256;2023-09-07T13:11:19;0.4;0;0
74434;PMS7003;62867;52.038;29.256;2023-09-07T13:15:55;0.8;0.8;0
74434;PMS7003;62867;52.038;29.256;2023-09-07T13:20:57;1.8;1.8;0
74434;PMS7003;62867;52.038;29.256;2023-09-07T13:25:53;1.2;1;0
74434;PMS7003;62867;52.038;29.256;2023-09-07T13:30:37;0.2;0.2;0
74434;PMS7003;62867;52.038;29.256;2023-09-07T13:36:19;0;0;0
74434;PMS7003;62867;52.038;29.256;2023-09-07T13:41:03;0;0;0
74434;PMS7003;62867;52.038;29.256;2023-09-07T13:46:11;0;0;0
74434;PMS7003;62867;52.038;29.256;2023-09-07T13:50:51;0;0;0
74434;PMS7003;62867;52.038;29.256;2023-09-07T13:56:20;0;0;0
74434;PMS7003;62867;52.038;29.256;2023-09-07T14:01:19;0;0;0
74434;PMS7003;62867;52.038;29.256;2023-09-07T14:05:43;0;0;0
74434;PMS7003;62867;52.038;29.256;2023-09-07T14:11:11;0;0;0
74434;PMS7003;62867;52.038;29.256;2023-09-07T14:15:43;0;0;0
74434;PMS7003;62867;52.038;29.256;2023-09-07T14:20:37;0;0;0
74434;PMS7003;62867;52.038;29.256;2023-09-07T14:26:19;0;0;0
74434;PMS7003;62867;52.038;29.256;2023-09-07T14:31:03;0;0;0
74434;PMS7003;62867;52.038;29.256;2023-09-07T14:36:11;0;0;0
74434;PMS7003;62867;52.038;29.256;2023-09-07T14:40:57;0;0;0
74434;PMS7003;62867;52.038;29.256;2023-09-07T14:45:39;0;0;0
74434;PMS7003;62867;52.038;29.256;2023-09-07T14:51:19;0;0;0
74434;PMS7003;62867;52.038;29.256;2023-09-07T14:56:01;0;0;0
74434;PMS7003;62867;52.038;29.256;2023-09-07T15:01:11;0;0;0
74434;PMS7003;62867;52.038;29.256;2023-09-07T15:05:43;0;0;0
74434;PMS7003;62867;52.038;29.256;2023-09-07T15:10:37;0;0;0
74434;PMS7003;62867;52.038;29.256;2023-09-07T15:16:19;0;0;0
74434;PMS7003;62867;52.038;29.256;2023-09-07T15:20:57;0;0;0
74434;PMS7003;62867;52.038;29.256;2023-09-07T15:26:19;0;0;0
74434;PMS7003;62867;52.038;29.256;2023-09-07T15:30:57;0;0;0
74434;PMS7003;62867;52.038;29.256;2023-09-07T15:36:11;0;0;0
74434;PMS7003;62867;52.038;29.256;2023-09-07T15:41:19;0;0;0
74434;PMS7003;62867;52.038;29.256;2023-09-07T15:45:37;0.2;0.2;0.2
74434;PMS7003;62867;52.038;29.256;2023-09-07T15:50:57;0;0;0
74434;PMS7003;62867;52.038;29.256;2023-09-07T15:55:43;0;0;0
74434;PMS7003;62867;52.038;29.256;2023-09-07T16:00:39;0;0;0
74434;PMS7003;62867;52.038;29.256;2023-09-07T16:06:07;0;0;0
74434;PMS7003;62867;52.038;29.256;2023-09-07T16:11:05;0;0;0
74434;PMS7003;62867;52.038;29.256;2023-09-07T16:16:13;0;0;0
74434;PMS7003;62867;52.038;29.256;2023-09-07T16:21:07;0;0;0
74434;PMS7003;62867;52.038;29.256;2023-09-07T16:26:13;0;0;0
74434;PMS7003;62867;52.038;29.256;2023-09-07T16:31:21;0;0;0
74434;PMS7003;62867;52.038;29.256;2023-09-07T16:35:53;0.2;0.2;0
74434;PMS7003;62867;52.038;29.256;2023-09-07T16:41:13;0.2;0;0
74434;PMS7003;62867;52.038;29.256;2023-09-07T16:45:45;0.8;0.8;0.8
74434;PMS7003;62867;52.038;29.256;2023-09-07T16:50:45;0;0;0
74434;PMS7003;62867;52.038;29.256;2023-09-07T16:56:21;0;0;0
74434;PMS7003;62867;52.038;29.256;2023-09-07T17:00:53;0;0;0
74434;PMS7003;62867;52.038;29.256;2023-09-07T17:06:01;0.4;0.4;0.2
74434;PMS7003;62867;52.038;29.256;2023-09-07T17:10:53;0.2;0.2;0
74434;PMS7003;62867;52.038;29.256;2023-09-07T17:16:13;0.6;0.6;0.2
74434;PMS7003;62867;52.038;29.256;2023-09-07T17:21:21;0.4;0.4;0.2
74434;PMS7003;62867;52.038;29.256;2023-09-07T17:25:59;0.4;0.4;0.4
74434;PMS7003;62867;52.038;29.256;2023-09-07T17:30:45;0.2;0.2;0.2
74434;PMS7003;62867;52.038;29.256;2023-09-07T17:35:51;0.4;0.4;0.2
74434;PMS7003;62867;52.038;29.256;2023-09-07T17:40:39;0.4;0.4;0.2
74434;PMS7003;62867;52.038;29.256;2023-09-07T17:46:13;0.2;0.2;0.2
74434;PMS7003;62867;52.038;29.256;2023-09-07T17:50:59;0.8;0.5;0.3
74434;PMS7003;62867;52.038;29.256;2023-09-07T17:56:13;0.4;0.4;0.2
74434;PMS7003;62867;52.038;29.256;2023-09-07T18:00:59;0.6;0.2;0
74434;PMS7003;62867;52.038;29.256;2023-09-07T18:06:13;0.6;0.6;0
74434;PMS7003;62867;52.038;29.256;2023-09-07T18:11:21;1;0.6;0.4
74434;PMS7003;62867;52.038;29.256;2023-09-07T18:16:05;1.2;0.8;0.4
74434;PMS7003;62867;52.038;29.256;2023-09-07T18:20:45;0.6;0.4;0.2
74434;PMS7003;62867;52.038;29.256;2023-09-07T18:25:51;0.8;0.6;0.2
74434;PMS7003;62867;52.038;29.256;2023-09-07T18:30:45;0.8;0.6;0.4
74434;PMS7003;62867;52.038;29.256;2023-09-07T18:36:21;0.8;0.6;0.4
74434;PMS7003;62867;52.038;29.256;2023-09-07T18:41:05;0.2;0.2;0
74434;PMS7003;62867;52.038;29.256;2023-09-07T18:46:21;0.6;0.6;0.4
74434;PMS7003;62867;52.038;29.256;2023-09-07T18:50:58;0.6;0.4;0.2
74434;PMS7003;62867;52.038;29.256;2023-09-07T18:55:53;0.8;0.8;0.5
74434;PMS7003;62867;52.038;29.256;2023-09-07T19:01:19;0.2;0.2;0
74434;PMS7003;62867;52.038;29.256;2023-09-07T19:05:51;0.2;0;0
74434;PMS7003;62867;52.038;29.256;2023-09-07T19:10:59;0.4;0.2;0
74434;PMS7003;62867;52.038;29.256;2023-09-07T19:15:45;0.2;0.2;0
74434;PMS7003;62867;52.038;29.256;2023-09-07T19:20:39;0.2;0;0
74434;PMS7003;62867;52.038;29.256;2023-09-07T19:26:24;0;0;0
74434;PMS7003;62867;52.038;29.256;2023-09-07T19:31:03;0;0;0
74434;PMS7003;62867;52.038;29.256;2023-09-07T19:36:13;0;0;0
74434;PMS7003;62867;52.038;29.256;2023-09-07T19:40:59;0.4;0;0
74434;PMS7003;62867;52.038;29.256;2023-09-07T19:46:13;0.2;0;0
74434;PMS7003;62867;52.038;29.256;2023-09-07T19:51:21;0.2;0.2;0.2
74434;PMS7003;62867;52.038;29.256;2023-09-07T19:55:45;1;1;0.8
74434;PMS7003;62867;52.038;29.256;2023-09-07T20:00:45;0.2;0.2;0
74434;PMS7003;62867;52.038;29.256;2023-09-07T20:05:45;0;0;0
74434;PMS7003;62867;52.038;29.256;2023-09-07T20:10:39;0;0;0
74434;PMS7003;62867;52.038;29.256;2023-09-07T20:16:23;0;0;0
74434;PMS7003;62867;52.038;29.256;2023-09-07T20:21:05;0;0;0
74434;PMS7003;62867;52.038;29.256;2023-09-07T20:25:49;0.8;0.4;0.2
74434;PMS7003;62867;52.038;29.256;2023-09-07T20:30:53;0.4;0;0
74434;PMS7003;62867;52.038;29.256;2023-09-07T20:36:01;0;0;0
74434;PMS7003;62867;52.038;29.256;2023-09-07T20:41:21;0;0;0
74434;PMS7003;62867;52.038;29.256;2023-09-07T20:45:39;0.2;0.2;0.2
74434;PMS7003;62867;52.038;29.256;2023-09-07T20:50:45;0.4;0.4;0
74434;PMS7003;62867;52.038;29.256;2023-09-07T20:55:39;0;0;0
74434;PMS7003;62867;52.038;29.256;2023-09-07T21:00:59;0;0;0
74434;PMS7003;62867;52.038;29.256;2023-09-07T21:05:41;0.4;0;0
74434;PMS7003;62867;52.038;29.256;2023-09-07T21:11:05;0;0;0
74434;PMS7003;62867;52.038;29.256;2023-09-07T21:16:01;0;0;0
74434;PMS7003;62867;52.038;29.256;2023-09-07T21:21:07;0;0;0
74434;PMS7003;62867;52.038;29.256;2023-09-07T21:26:13;0;0;0
74434;PMS7003;62867;52.038;29.256;2023-09-07T21:31:21;0;0;0
74434;PMS7003;62867;52.038;29.256;2023-09-07T21:35:39;0.2;0.2;0.2
74434;PMS7003;62867;52.038;29.256;2023-09-07T21:40:53;0;0;0
74434;PMS7003;62867;52.038;29.256;2023-09-07T21:45:45;0;0;0
74434;PMS7003;62867;52.038;29.256;2023-09-07T21:50:41;0.2;0.2;0.2
74434;PMS7003;62867;52.038;29.256;2023-09-07T21:56:21;0.3;0.3;0.3
74434;PMS7003;62867;52.038;29.256;2023-09-07T22:00:51;0.2;0.2;0
74434;PMS7003;62867;52.038;29.256;2023-09-07T22:06:13;0.2;0;0
74434;PMS7003;62867;52.038;29.256;2023-09-07T22:11:21;0.2;0;0
74434;PMS7003;62867;52.038;29.256;2023-09-07T22:15:39;0;0;0
74434;PMS7003;62867;52.038;29.256;2023-09-07T22:21:21;0.2;0.2;0
74434;PMS7003;62867;52.038;29.256;2023-09-07T22:25:57;0;0;0
74434;PMS7003;62867;52.038;29.256;2023-09-07T22:30:39;0.2;0;0
74434;PMS7003;62867;52.038;29.256;2023-09-07T22:36:07;0;0;0
74434;PMS7003;62867;52.038;29.256;2023-09-07T22:40:53;0;0;0
74434;PMS7003;62867;52.038;29.256;2023-09-07T22:46:21;0;0;0
74434;PMS7003;62867;52.038;29.256;2023-09-07T22:50:45;0;0;0
74434;PMS7003;62867;52.038;29.256;2023-09-07T22:55:41;0;0;0
74434;PMS7003;62867;52.038;29.256;2023-09-07T23:01:21;0;0;0
74434;PMS7003;62867;52.038;29.256;2023-09-07T23:05:51;0;0;0
74434;PMS7003;62867;52.038;29.256;2023-09-07T23:10:55;0;0;0
74434;PMS7003;62867;52.038;29.256;2023-09-07T23:15:39;0.2;0;0
74434;PMS7003;62867;52.038;29.256;2023-09-07T23:20:39;0;0;0
74434;PMS7003;62867;52.038;29.256;2023-09-07T23:26:07;0;0;0
74434;PMS7003;62867;52.038;29.256;2023-09-07T23:30:39;0;0;0
74434;PMS7003;62867;52.038;29.256;2023-09-07T23:36:21;0;0;0
74434;PMS7003;62867;52.038;29.256;2023-09-07T23:40:45;0.2;0;0
74434;PMS7003;62867;52.038;29.256;2023-09-07T23:46:13;0;0;0
74434;PMS7003;62867;52.038;29.256;2023-09-07T23:51:21;0.4;0.4;0.4
74434;PMS7003;62867;52.038;29.256;2023-09-07T23:55:39;0.2;0;0
